sensor_id;sensor_type;location;lat;lon;timestamp;P1;durP1;ratioP1;P2;durP2;ratioP2
73684;SDS011;61985;51.070;14.064;2023-08-12T00:01:05;9.00;;;3.80;;
73684;SDS011;61985;51.070;14.064;2023-08-12T00:03:30;9.10;;;4.38;;
73684;SDS011;61985;51.070;14.064;2023-08-12T00:05:56;6.47;;;3.33;;
73684;SDS011;61985;51.070;14.064;2023-08-12T00:08:25;7.60;;;3.17;;
73684;SDS011;61985;51.070;14.064;2023-08-12T00:10:51;6.03;;;3.28;;
73684;SDS011;61985;51.070;14.064;2023-08-12T00:13:16;6.88;;;3.10;;
73684;SDS011;61985;51.070;14.064;2023-08-12T00:15:42;5.50;;;3.15;;
73684;SDS011;61985;51.070;14.064;2023-08-12T00:18:09;6.82;;;3.42;;
73684;SDS011;61985;51.070;14.064;2023-08-12T00:20:34;9.32;;;3.45;;
73684;SDS011;61985;51.070;14.064;2023-08-12T00:23:00;6.30;;;3.13;;
73684;SDS011;61985;51.070;14.064;2023-08-12T00:25:26;6.15;;;2.83;;
73684;SDS011;61985;51.070;14.064;2023-08-12T00:27:52;6.65;;;3.28;;
73684;SDS011;61985;51.070;14.064;2023-08-12T00:30:17;8.07;;;3.00;;
73684;SDS011;61985;51.070;14.064;2023-08-12T00:32:43;6.78;;;3.20;;
73684;SDS011;61985;51.070;14.064;2023-08-12T00:35:09;5.85;;;3.03;;
73684;SDS011;61985;51.070;14.064;2023-08-12T00:37:35;4.78;;;3.20;;
73684;SDS011;61985;51.070;14.064;2023-08-12T00:40:00;8.35;;;3.20;;
73684;SDS011;61985;51.070;14.064;2023-08-12T00:42:25;6.00;;;3.28;;
73684;SDS011;61985;51.070;14.064;2023-08-12T00:44:51;5.80;;;3.00;;
73684;SDS011;61985;51.070;14.064;2023-08-12T00:47:16;5.28;;;2.92;;
73684;SDS011;61985;51.070;14.064;2023-08-12T00:49:42;7.97;;;3.03;;
73684;SDS011;61985;51.070;14.064;2023-08-12T00:52:14;6.53;;;3.00;;
73684;SDS011;61985;51.070;14.064;2023-08-12T00:54:41;6.25;;;3.30;;
73684;SDS011;61985;51.070;14.064;2023-08-12T00:57:12;6.25;;;3.95;;
73684;SDS011;61985;51.070;14.064;2023-08-12T00:59:37;5.68;;;3.28;;
73684;SDS011;61985;51.070;14.064;2023-08-12T01:02:09;6.38;;;3.78;;
73684;SDS011;61985;51.070;14.064;2023-08-12T01:04:34;7.18;;;3.30;;
73684;SDS011;61985;51.070;14.064;2023-08-12T01:07:10;5.72;;;2.83;;
73684;SDS011;61985;51.070;14.064;2023-08-12T01:09:36;6.32;;;3.50;;
73684;SDS011;61985;51.070;14.064;2023-08-12T01:12:06;6.30;;;3.40;;
73684;SDS011;61985;51.070;14.064;2023-08-12T01:17:34;5.43;;;3.22;;
73684;SDS011;61985;51.070;14.064;2023-08-12T01:20:02;4.78;;;3.05;;
73684;SDS011;61985;51.070;14.064;2023-08-12T01:22:37;6.55;;;2.90;;
73684;SDS011;61985;51.070;14.064;2023-08-12T01:25:07;4.88;;;3.17;;
73684;SDS011;61985;51.070;14.064;2023-08-12T01:27:36;4.90;;;3.20;;
73684;SDS011;61985;51.070;14.064;2023-08-12T01:30:02;5.95;;;3.38;;
73684;SDS011;61985;51.070;14.064;2023-08-12T01:35:17;6.88;;;3.63;;
73684;SDS011;61985;51.070;14.064;2023-08-12T01:37:50;11.32;;;3.90;;
73684;SDS011;61985;51.070;14.064;2023-08-12T01:40:17;5.80;;;3.35;;
73684;SDS011;61985;51.070;14.064;2023-08-12T01:42:44;5.72;;;3.25;;
73684;SDS011;61985;51.070;14.064;2023-08-12T01:45:10;6.90;;;3.50;;
73684;SDS011;61985;51.070;14.064;2023-08-12T01:47:35;12.93;;;5.07;;
73684;SDS011;61985;51.070;14.064;2023-08-12T01:50:01;7.32;;;3.83;;
73684;SDS011;61985;51.070;14.064;2023-08-12T01:52:26;6.30;;;3.35;;
73684;SDS011;61985;51.070;14.064;2023-08-12T01:54:52;7.05;;;3.55;;
73684;SDS011;61985;51.070;14.064;2023-08-12T01:57:17;8.98;;;3.05;;
73684;SDS011;61985;51.070;14.064;2023-08-12T01:59:43;7.22;;;3.60;;
73684;SDS011;61985;51.070;14.064;2023-08-12T02:02:11;7.38;;;3.22;;
73684;SDS011;61985;51.070;14.064;2023-08-12T02:04:37;6.30;;;3.40;;
73684;SDS011;61985;51.070;14.064;2023-08-12T02:07:05;6.10;;;3.72;;
73684;SDS011;61985;51.070;14.064;2023-08-12T02:09:30;8.73;;;3.65;;
73684;SDS011;61985;51.070;14.064;2023-08-12T02:11:56;7.03;;;3.50;;
73684;SDS011;61985;51.070;14.064;2023-08-12T02:14:22;5.82;;;3.60;;
73684;SDS011;61985;51.070;14.064;2023-08-12T02:16:47;8.23;;;3.47;;
73684;SDS011;61985;51.070;14.064;2023-08-12T02:19:12;4.68;;;3.08;;
73684;SDS011;61985;51.070;14.064;2023-08-12T02:21:38;5.13;;;3.25;;
73684;SDS011;61985;51.070;14.064;2023-08-12T02:24:03;7.78;;;3.50;;
73684;SDS011;61985;51.070;14.064;2023-08-12T02:26:29;5.97;;;3.40;;
73684;SDS011;61985;51.070;14.064;2023-08-12T02:28:55;9.05;;;3.65;;
73684;SDS011;61985;51.070;14.064;2023-08-12T02:31:20;6.72;;;3.50;;
73684;SDS011;61985;51.070;14.064;2023-08-12T02:33:46;8.70;;;3.80;;
73684;SDS011;61985;51.070;14.064;2023-08-12T02:36:11;7.60;;;3.60;;
73684;SDS011;61985;51.070;14.064;2023-08-12T02:38:37;7.40;;;3.33;;
73684;SDS011;61985;51.070;14.064;2023-08-12T02:41:02;6.50;;;3.85;;
73684;SDS011;61985;51.070;14.064;2023-08-12T02:43:27;6.35;;;3.60;;
73684;SDS011;61985;51.070;14.064;2023-08-12T02:45:53;5.05;;;3.50;;
73684;SDS011;61985;51.070;14.064;2023-08-12T02:48:18;8.75;;;4.20;;
73684;SDS011;61985;51.070;14.064;2023-08-12T02:50:43;6.75;;;3.63;;
73684;SDS011;61985;51.070;14.064;2023-08-12T02:53:09;5.95;;;3.38;;
73684;SDS011;61985;51.070;14.064;2023-08-12T02:55:35;4.63;;;3.20;;
73684;SDS011;61985;51.070;14.064;2023-08-12T02:58:01;7.97;;;3.65;;
73684;SDS011;61985;51.070;14.064;2023-08-12T03:00:27;5.03;;;3.47;;
73684;SDS011;61985;51.070;14.064;2023-08-12T03:02:53;6.38;;;3.58;;
73684;SDS011;61985;51.070;14.064;2023-08-12T03:05:19;4.75;;;3.38;;
73684;SDS011;61985;51.070;14.064;2023-08-12T03:07:44;6.18;;;3.45;;
73684;SDS011;61985;51.070;14.064;2023-08-12T03:10:10;6.40;;;3.63;;
73684;SDS011;61985;51.070;14.064;2023-08-12T03:12:35;5.07;;;3.50;;
73684;SDS011;61985;51.070;14.064;2023-08-12T03:15:01;8.30;;;3.53;;
73684;SDS011;61985;51.070;14.064;2023-08-12T03:17:27;5.72;;;3.22;;
73684;SDS011;61985;51.070;14.064;2023-08-12T03:19:52;5.25;;;3.55;;
73684;SDS011;61985;51.070;14.064;2023-08-12T03:22:19;6.57;;;3.47;;
73684;SDS011;61985;51.070;14.064;2023-08-12T03:24:45;6.40;;;3.72;;
73684;SDS011;61985;51.070;14.064;2023-08-12T03:27:10;5.75;;;3.38;;
73684;SDS011;61985;51.070;14.064;2023-08-12T03:29:36;6.78;;;3.40;;
73684;SDS011;61985;51.070;14.064;2023-08-12T03:32:01;7.13;;;3.42;;
73684;SDS011;61985;51.070;14.064;2023-08-12T03:34:28;6.47;;;3.40;;
73684;SDS011;61985;51.070;14.064;2023-08-12T03:36:54;5.20;;;3.20;;
73684;SDS011;61985;51.070;14.064;2023-08-12T03:39:20;5.90;;;3.35;;
73684;SDS011;61985;51.070;14.064;2023-08-12T03:41:45;8.63;;;3.55;;
73684;SDS011;61985;51.070;14.064;2023-08-12T03:44:11;8.68;;;3.47;;
73684;SDS011;61985;51.070;14.064;2023-08-12T03:46:36;6.18;;;3.28;;
73684;SDS011;61985;51.070;14.064;2023-08-12T03:49:02;6.70;;;3.30;;
73684;SDS011;61985;51.070;14.064;2023-08-12T03:51:27;5.93;;;3.45;;
73684;SDS011;61985;51.070;14.064;2023-08-12T03:53:52;5.40;;;3.20;;
73684;SDS011;61985;51.070;14.064;2023-08-12T03:56:18;7.72;;;3.55;;
73684;SDS011;61985;51.070;14.064;2023-08-12T03:58:43;5.03;;;3.40;;
73684;SDS011;61985;51.070;14.064;2023-08-12T04:01:09;7.57;;;3.53;;
73684;SDS011;61985;51.070;14.064;2023-08-12T04:03:34;6.15;;;3.15;;
73684;SDS011;61985;51.070;14.064;2023-08-12T04:05:59;9.27;;;3.75;;
73684;SDS011;61985;51.070;14.064;2023-08-12T04:08:25;6.70;;;3.47;;
73684;SDS011;61985;51.070;14.064;2023-08-12T04:10:50;5.90;;;3.60;;
73684;SDS011;61985;51.070;14.064;2023-08-12T04:13:16;7.32;;;3.75;;
73684;SDS011;61985;51.070;14.064;2023-08-12T04:15:42;6.40;;;3.53;;
73684;SDS011;61985;51.070;14.064;2023-08-12T04:18:07;6.15;;;3.60;;
73684;SDS011;61985;51.070;14.064;2023-08-12T04:20:33;7.78;;;3.17;;
73684;SDS011;61985;51.070;14.064;2023-08-12T04:22:58;8.75;;;3.95;;
73684;SDS011;61985;51.070;14.064;2023-08-12T04:25:23;6.72;;;3.72;;
73684;SDS011;61985;51.070;14.064;2023-08-12T04:27:49;5.35;;;3.20;;
73684;SDS011;61985;51.070;14.064;2023-08-12T04:30:17;5.97;;;3.30;;
73684;SDS011;61985;51.070;14.064;2023-08-12T04:32:43;6.40;;;3.50;;
73684;SDS011;61985;51.070;14.064;2023-08-12T04:35:09;5.32;;;3.13;;
73684;SDS011;61985;51.070;14.064;2023-08-12T04:37:35;5.90;;;3.55;;
73684;SDS011;61985;51.070;14.064;2023-08-12T04:40:01;7.30;;;3.55;;
73684;SDS011;61985;51.070;14.064;2023-08-12T04:42:28;6.50;;;3.40;;
73684;SDS011;61985;51.070;14.064;2023-08-12T04:44:54;8.18;;;3.40;;
73684;SDS011;61985;51.070;14.064;2023-08-12T04:47:19;5.80;;;3.45;;
73684;SDS011;61985;51.070;14.064;2023-08-12T04:49:44;5.65;;;3.25;;
73684;SDS011;61985;51.070;14.064;2023-08-12T04:52:10;5.00;;;3.17;;
73684;SDS011;61985;51.070;14.064;2023-08-12T04:54:35;7.10;;;3.58;;
73684;SDS011;61985;51.070;14.064;2023-08-12T04:57:01;7.22;;;3.40;;
73684;SDS011;61985;51.070;14.064;2023-08-12T04:59:26;7.43;;;3.15;;
73684;SDS011;61985;51.070;14.064;2023-08-12T05:01:51;7.68;;;3.33;;
73684;SDS011;61985;51.070;14.064;2023-08-12T05:04:17;5.70;;;3.40;;
73684;SDS011;61985;51.070;14.064;2023-08-12T05:06:42;4.80;;;3.20;;
73684;SDS011;61985;51.070;14.064;2023-08-12T05:09:08;5.20;;;3.10;;
73684;SDS011;61985;51.070;14.064;2023-08-12T05:11:33;6.43;;;3.00;;
73684;SDS011;61985;51.070;14.064;2023-08-12T05:13:59;5.97;;;3.20;;
73684;SDS011;61985;51.070;14.064;2023-08-12T05:16:25;8.10;;;3.35;;
73684;SDS011;61985;51.070;14.064;2023-08-12T05:18:50;7.65;;;3.05;;
73684;SDS011;61985;51.070;14.064;2023-08-12T05:21:16;6.63;;;3.30;;
73684;SDS011;61985;51.070;14.064;2023-08-12T05:23:41;4.65;;;3.17;;
73684;SDS011;61985;51.070;14.064;2023-08-12T05:26:07;5.00;;;3.20;;
73684;SDS011;61985;51.070;14.064;2023-08-12T05:28:32;8.15;;;3.30;;
73684;SDS011;61985;51.070;14.064;2023-08-12T05:30:57;5.47;;;3.10;;
73684;SDS011;61985;51.070;14.064;2023-08-12T05:33:23;5.72;;;3.35;;
73684;SDS011;61985;51.070;14.064;2023-08-12T05:35:49;6.03;;;3.25;;
73684;SDS011;61985;51.070;14.064;2023-08-12T05:38:15;5.60;;;3.40;;
73684;SDS011;61985;51.070;14.064;2023-08-12T05:40:41;5.25;;;3.28;;
73684;SDS011;61985;51.070;14.064;2023-08-12T05:43:07;6.55;;;3.20;;
73684;SDS011;61985;51.070;14.064;2023-08-12T05:45:33;4.82;;;3.33;;
73684;SDS011;61985;51.070;14.064;2023-08-12T05:47:58;4.78;;;3.40;;
73684;SDS011;61985;51.070;14.064;2023-08-12T05:50:24;5.72;;;3.63;;
73684;SDS011;61985;51.070;14.064;2023-08-12T05:52:49;3.65;;;2.80;;
73684;SDS011;61985;51.070;14.064;2023-08-12T05:55:15;10.20;;;3.67;;
73684;SDS011;61985;51.070;14.064;2023-08-12T05:57:40;8.02;;;3.75;;
73684;SDS011;61985;51.070;14.064;2023-08-12T06:00:06;4.88;;;3.35;;
73684;SDS011;61985;51.070;14.064;2023-08-12T06:02:32;5.65;;;3.35;;
73684;SDS011;61985;51.070;14.064;2023-08-12T06:04:57;5.13;;;3.30;;
73684;SDS011;61985;51.070;14.064;2023-08-12T06:07:23;9.02;;;3.40;;
73684;SDS011;61985;51.070;14.064;2023-08-12T06:09:49;6.50;;;3.33;;
73684;SDS011;61985;51.070;14.064;2023-08-12T06:12:15;6.45;;;3.42;;
73684;SDS011;61985;51.070;14.064;2023-08-12T06:14:41;5.35;;;3.13;;
73684;SDS011;61985;51.070;14.064;2023-08-12T06:17:06;5.53;;;3.05;;
73684;SDS011;61985;51.070;14.064;2023-08-12T06:19:32;5.60;;;3.40;;
73684;SDS011;61985;51.070;14.064;2023-08-12T06:21:58;6.50;;;3.40;;
73684;SDS011;61985;51.070;14.064;2023-08-12T06:24:23;4.90;;;3.25;;
73684;SDS011;61985;51.070;14.064;2023-08-12T06:26:49;5.63;;;3.17;;
73684;SDS011;61985;51.070;14.064;2023-08-12T06:29:14;6.80;;;3.10;;
73684;SDS011;61985;51.070;14.064;2023-08-12T06:31:39;5.32;;;3.25;;
73684;SDS011;61985;51.070;14.064;2023-08-12T06:34:05;5.47;;;3.25;;
73684;SDS011;61985;51.070;14.064;2023-08-12T06:36:30;5.60;;;3.70;;
73684;SDS011;61985;51.070;14.064;2023-08-12T06:38:56;7.05;;;3.25;;
73684;SDS011;61985;51.070;14.064;2023-08-12T06:41:21;6.85;;;3.20;;
73684;SDS011;61985;51.070;14.064;2023-08-12T06:43:46;6.00;;;3.25;;
73684;SDS011;61985;51.070;14.064;2023-08-12T06:46:12;6.03;;;3.22;;
73684;SDS011;61985;51.070;14.064;2023-08-12T06:48:37;5.93;;;3.63;;
73684;SDS011;61985;51.070;14.064;2023-08-12T06:51:02;4.43;;;3.17;;
73684;SDS011;61985;51.070;14.064;2023-08-12T06:53:35;5.75;;;3.60;;
73684;SDS011;61985;51.070;14.064;2023-08-12T06:56:02;5.97;;;3.50;;
73684;SDS011;61985;51.070;14.064;2023-08-12T06:58:28;4.43;;;3.10;;
73684;SDS011;61985;51.070;14.064;2023-08-12T07:00:53;6.50;;;3.22;;
73684;SDS011;61985;51.070;14.064;2023-08-12T07:03:19;5.05;;;3.20;;
73684;SDS011;61985;51.070;14.064;2023-08-12T07:05:44;6.68;;;3.10;;
73684;SDS011;61985;51.070;14.064;2023-08-12T07:08:10;8.13;;;3.35;;
73684;SDS011;61985;51.070;14.064;2023-08-12T07:10:38;6.13;;;3.30;;
73684;SDS011;61985;51.070;14.064;2023-08-12T07:13:04;5.20;;;3.05;;
73684;SDS011;61985;51.070;14.064;2023-08-12T07:15:30;8.85;;;3.38;;
73684;SDS011;61985;51.070;14.064;2023-08-12T07:17:55;6.70;;;3.15;;
73684;SDS011;61985;51.070;14.064;2023-08-12T07:20:21;4.30;;;3.10;;
73684;SDS011;61985;51.070;14.064;2023-08-12T07:22:46;5.35;;;3.35;;
73684;SDS011;61985;51.070;14.064;2023-08-12T07:25:11;6.97;;;3.50;;
73684;SDS011;61985;51.070;14.064;2023-08-12T07:27:37;8.63;;;3.30;;
73684;SDS011;61985;51.070;14.064;2023-08-12T07:30:02;7.18;;;3.70;;
73684;SDS011;61985;51.070;14.064;2023-08-12T07:32:28;8.27;;;3.20;;
73684;SDS011;61985;51.070;14.064;2023-08-12T07:34:53;5.25;;;3.53;;
73684;SDS011;61985;51.070;14.064;2023-08-12T07:37:19;6.15;;;3.33;;
73684;SDS011;61985;51.070;14.064;2023-08-12T07:39:44;8.55;;;3.60;;
73684;SDS011;61985;51.070;14.064;2023-08-12T07:42:10;6.53;;;3.20;;
73684;SDS011;61985;51.070;14.064;2023-08-12T07:44:35;6.70;;;3.45;;
73684;SDS011;61985;51.070;14.064;2023-08-12T07:47:00;5.15;;;3.20;;
73684;SDS011;61985;51.070;14.064;2023-08-12T07:49:26;7.03;;;3.55;;
73684;SDS011;61985;51.070;14.064;2023-08-12T07:51:51;5.13;;;3.30;;
73684;SDS011;61985;51.070;14.064;2023-08-12T07:54:16;10.18;;;3.50;;
73684;SDS011;61985;51.070;14.064;2023-08-12T07:56:42;7.78;;;4.05;;
73684;SDS011;61985;51.070;14.064;2023-08-12T07:59:07;6.72;;;3.88;;
73684;SDS011;61985;51.070;14.064;2023-08-12T08:01:33;4.53;;;3.13;;
73684;SDS011;61985;51.070;14.064;2023-08-12T08:03:58;8.63;;;3.63;;
73684;SDS011;61985;51.070;14.064;2023-08-12T08:06:23;6.75;;;3.20;;
73684;SDS011;61985;51.070;14.064;2023-08-12T08:08:49;5.05;;;3.22;;
73684;SDS011;61985;51.070;14.064;2023-08-12T08:11:14;15.07;;;4.45;;
73684;SDS011;61985;51.070;14.064;2023-08-12T08:13:40;7.05;;;3.35;;
73684;SDS011;61985;51.070;14.064;2023-08-12T08:16:05;9.68;;;3.83;;
73684;SDS011;61985;51.070;14.064;2023-08-12T08:18:31;10.50;;;3.55;;
73684;SDS011;61985;51.070;14.064;2023-08-12T08:20:56;5.05;;;3.35;;
73684;SDS011;61985;51.070;14.064;2023-08-12T08:23:21;8.23;;;3.70;;
73684;SDS011;61985;51.070;14.064;2023-08-12T08:25:47;12.20;;;3.92;;
73684;SDS011;61985;51.070;14.064;2023-08-12T08:28:12;5.80;;;3.55;;
73684;SDS011;61985;51.070;14.064;2023-08-12T08:30:38;5.07;;;3.40;;
73684;SDS011;61985;51.070;14.064;2023-08-12T08:33:03;8.38;;;3.60;;
73684;SDS011;61985;51.070;14.064;2023-08-12T08:35:29;7.90;;;4.45;;
73684;SDS011;61985;51.070;14.064;2023-08-12T08:37:54;5.32;;;3.33;;
73684;SDS011;61985;51.070;14.064;2023-08-12T08:40:20;6.13;;;3.20;;
73684;SDS011;61985;51.070;14.064;2023-08-12T08:42:45;5.13;;;3.30;;
73684;SDS011;61985;51.070;14.064;2023-08-12T08:45:16;5.15;;;3.00;;
73684;SDS011;61985;51.070;14.064;2023-08-12T08:47:42;5.13;;;2.97;;
73684;SDS011;61985;51.070;14.064;2023-08-12T08:50:09;6.72;;;3.10;;
73684;SDS011;61985;51.070;14.064;2023-08-12T08:52:38;4.55;;;3.15;;
73684;SDS011;61985;51.070;14.064;2023-08-12T08:55:04;7.68;;;2.80;;
73684;SDS011;61985;51.070;14.064;2023-08-12T08:57:30;4.60;;;2.70;;
73684;SDS011;61985;51.070;14.064;2023-08-12T08:59:57;5.68;;;3.13;;
73684;SDS011;61985;51.070;14.064;2023-08-12T09:02:22;8.07;;;3.15;;
73684;SDS011;61985;51.070;14.064;2023-08-12T09:04:49;8.85;;;3.58;;
73684;SDS011;61985;51.070;14.064;2023-08-12T09:07:15;7.10;;;3.10;;
73684;SDS011;61985;51.070;14.064;2023-08-12T09:09:41;12.35;;;3.65;;
73684;SDS011;61985;51.070;14.064;2023-08-12T09:12:14;4.72;;;2.92;;
73684;SDS011;61985;51.070;14.064;2023-08-12T09:14:44;5.63;;;3.50;;
73684;SDS011;61985;51.070;14.064;2023-08-12T09:17:10;5.68;;;3.33;;
73684;SDS011;61985;51.070;14.064;2023-08-12T09:19:35;5.15;;;2.75;;
73684;SDS011;61985;51.070;14.064;2023-08-12T09:22:10;4.90;;;3.28;;
73684;SDS011;61985;51.070;14.064;2023-08-12T09:24:37;3.95;;;2.90;;
73684;SDS011;61985;51.070;14.064;2023-08-12T09:27:06;5.38;;;2.80;;
73684;SDS011;61985;51.070;14.064;2023-08-12T09:29:32;5.07;;;3.00;;
73684;SDS011;61985;51.070;14.064;2023-08-12T09:32:05;5.25;;;2.80;;
73684;SDS011;61985;51.070;14.064;2023-08-12T09:34:34;4.38;;;2.70;;
73684;SDS011;61985;51.070;14.064;2023-08-12T09:37:01;5.88;;;2.80;;
73684;SDS011;61985;51.070;14.064;2023-08-12T09:39:28;8.75;;;3.03;;
73684;SDS011;61985;51.070;14.064;2023-08-12T09:41:55;5.35;;;2.92;;
73684;SDS011;61985;51.070;14.064;2023-08-12T09:44:21;5.85;;;3.28;;
73684;SDS011;61985;51.070;14.064;2023-08-12T09:46:47;4.82;;;2.70;;
73684;SDS011;61985;51.070;14.064;2023-08-12T09:49:13;5.18;;;3.30;;
73684;SDS011;61985;51.070;14.064;2023-08-12T09:51:38;5.72;;;3.25;;
73684;SDS011;61985;51.070;14.064;2023-08-12T09:54:08;8.25;;;2.72;;
73684;SDS011;61985;51.070;14.064;2023-08-12T09:56:36;4.75;;;3.10;;
73684;SDS011;61985;51.070;14.064;2023-08-12T09:59:02;7.03;;;2.90;;
73684;SDS011;61985;51.070;14.064;2023-08-12T10:01:31;5.05;;;2.90;;
73684;SDS011;61985;51.070;14.064;2023-08-12T10:03:56;10.82;;;2.80;;
73684;SDS011;61985;51.070;14.064;2023-08-12T10:06:22;3.45;;;2.67;;
73684;SDS011;61985;51.070;14.064;2023-08-12T10:08:48;9.80;;;2.67;;
73684;SDS011;61985;51.070;14.064;2023-08-12T10:11:14;4.05;;;2.60;;
73684;SDS011;61985;51.070;14.064;2023-08-12T10:13:40;3.75;;;2.50;;
73684;SDS011;61985;51.070;14.064;2023-08-12T10:16:06;4.10;;;2.35;;
73684;SDS011;61985;51.070;14.064;2023-08-12T10:18:32;6.25;;;2.60;;
73684;SDS011;61985;51.070;14.064;2023-08-12T10:23:25;4.03;;;2.60;;
73684;SDS011;61985;51.070;14.064;2023-08-12T10:25:53;4.10;;;2.40;;
73684;SDS011;61985;51.070;14.064;2023-08-12T10:28:19;5.75;;;2.55;;
73684;SDS011;61985;51.070;14.064;2023-08-12T10:30:47;6.43;;;3.08;;
73684;SDS011;61985;51.070;14.064;2023-08-12T10:33:16;5.55;;;2.53;;
73684;SDS011;61985;51.070;14.064;2023-08-12T10:35:43;3.25;;;2.42;;
73684;SDS011;61985;51.070;14.064;2023-08-12T10:38:18;2.40;;;2.05;;
73684;SDS011;61985;51.070;14.064;2023-08-12T10:40:48;2.75;;;1.83;;
73684;SDS011;61985;51.070;14.064;2023-08-12T10:43:13;4.07;;;2.10;;
73684;SDS011;61985;51.070;14.064;2023-08-12T10:52:26;4.05;;;2.10;;
73684;SDS011;61985;51.070;14.064;2023-08-12T10:58:55;6.00;;;2.00;;
73684;SDS011;61985;51.070;14.064;2023-08-12T11:02:23;4.65;;;1.90;;
73684;SDS011;61985;51.070;14.064;2023-08-12T11:05:43;4.82;;;2.05;;
73684;SDS011;61985;51.070;14.064;2023-08-12T11:12:39;4.38;;;2.13;;
73684;SDS011;61985;51.070;14.064;2023-08-12T11:22:31;4.47;;;2.17;;
73684;SDS011;61985;51.070;14.064;2023-08-12T11:49:39;4.53;;;2.50;;
73684;SDS011;61985;51.070;14.064;2023-08-12T12:02:52;4.55;;;2.33;;
73684;SDS011;61985;51.070;14.064;2023-08-12T14:04:38;4.55;;;2.80;;
73684;SDS011;61985;51.070;14.064;2023-08-12T14:07:03;5.97;;;2.80;;
73684;SDS011;61985;51.070;14.064;2023-08-12T14:09:29;4.45;;;2.80;;
73684;SDS011;61985;51.070;14.064;2023-08-12T14:11:55;5.47;;;2.78;;
73684;SDS011;61985;51.070;14.064;2023-08-12T14:14:20;6.65;;;2.63;;
73684;SDS011;61985;51.070;14.064;2023-08-12T14:16:47;7.18;;;2.72;;
73684;SDS011;61985;51.070;14.064;2023-08-12T14:19:13;4.45;;;2.50;;
73684;SDS011;61985;51.070;14.064;2023-08-12T14:21:41;6.68;;;3.22;;
73684;SDS011;61985;51.070;14.064;2023-08-12T14:24:07;6.07;;;3.65;;
73684;SDS011;61985;51.070;14.064;2023-08-12T14:26:33;4.57;;;2.83;;
73684;SDS011;61985;51.070;14.064;2023-08-12T14:28:59;3.38;;;2.70;;
73684;SDS011;61985;51.070;14.064;2023-08-12T14:31:24;4.55;;;2.70;;
73684;SDS011;61985;51.070;14.064;2023-08-12T14:33:50;4.93;;;2.50;;
73684;SDS011;61985;51.070;14.064;2023-08-12T14:36:15;4.20;;;2.85;;
73684;SDS011;61985;51.070;14.064;2023-08-12T14:38:40;6.97;;;2.75;;
73684;SDS011;61985;51.070;14.064;2023-08-12T14:41:06;4.28;;;2.67;;
73684;SDS011;61985;51.070;14.064;2023-08-12T14:43:31;5.80;;;2.90;;
73684;SDS011;61985;51.070;14.064;2023-08-12T14:45:57;3.75;;;2.72;;
73684;SDS011;61985;51.070;14.064;2023-08-12T14:48:22;5.05;;;2.67;;
73684;SDS011;61985;51.070;14.064;2023-08-12T14:50:48;4.30;;;2.90;;
73684;SDS011;61985;51.070;14.064;2023-08-12T14:53:13;3.40;;;2.60;;
73684;SDS011;61985;51.070;14.064;2023-08-12T14:55:38;5.25;;;3.00;;
73684;SDS011;61985;51.070;14.064;2023-08-12T14:58:04;6.18;;;2.70;;
73684;SDS011;61985;51.070;14.064;2023-08-12T15:00:29;4.68;;;2.80;;
73684;SDS011;61985;51.070;14.064;2023-08-12T15:02:55;5.28;;;2.65;;
73684;SDS011;61985;51.070;14.064;2023-08-12T15:05:20;4.70;;;2.65;;
73684;SDS011;61985;51.070;14.064;2023-08-12T15:07:46;6.10;;;3.05;;
73684;SDS011;61985;51.070;14.064;2023-08-12T15:10:12;5.28;;;3.20;;
73684;SDS011;61985;51.070;14.064;2023-08-12T15:12:37;5.28;;;2.58;;
73684;SDS011;61985;51.070;14.064;2023-08-12T15:15:03;5.28;;;2.75;;
73684;SDS011;61985;51.070;14.064;2023-08-12T15:17:28;7.25;;;2.75;;
73684;SDS011;61985;51.070;14.064;2023-08-12T15:19:54;4.68;;;2.72;;
73684;SDS011;61985;51.070;14.064;2023-08-12T15:22:19;6.38;;;3.05;;
73684;SDS011;61985;51.070;14.064;2023-08-12T15:24:45;9.35;;;2.83;;
73684;SDS011;61985;51.070;14.064;2023-08-12T15:27:10;3.80;;;2.80;;
73684;SDS011;61985;51.070;14.064;2023-08-12T15:29:36;3.35;;;2.50;;
73684;SDS011;61985;51.070;14.064;2023-08-12T15:32:01;6.43;;;2.45;;
73684;SDS011;61985;51.070;14.064;2023-08-12T15:34:28;4.18;;;2.60;;
73684;SDS011;61985;51.070;14.064;2023-08-12T15:36:53;5.13;;;2.70;;
73684;SDS011;61985;51.070;14.064;2023-08-12T15:39:21;6.93;;;2.90;;
73684;SDS011;61985;51.070;14.064;2023-08-12T15:41:47;6.60;;;2.80;;
73684;SDS011;61985;51.070;14.064;2023-08-12T15:44:12;5.53;;;2.83;;
73684;SDS011;61985;51.070;14.064;2023-08-12T15:46:39;4.70;;;2.83;;
73684;SDS011;61985;51.070;14.064;2023-08-12T15:49:05;3.17;;;2.60;;
73684;SDS011;61985;51.070;14.064;2023-08-12T15:51:32;4.63;;;2.88;;
73684;SDS011;61985;51.070;14.064;2023-08-12T15:53:59;6.10;;;2.90;;
73684;SDS011;61985;51.070;14.064;2023-08-12T15:56:25;6.95;;;3.42;;
73684;SDS011;61985;51.070;14.064;2023-08-12T15:58:50;7.72;;;2.83;;
73684;SDS011;61985;51.070;14.064;2023-08-12T16:01:17;5.43;;;3.20;;
73684;SDS011;61985;51.070;14.064;2023-08-12T16:03:42;6.45;;;3.00;;
73684;SDS011;61985;51.070;14.064;2023-08-12T16:06:08;4.78;;;2.90;;
73684;SDS011;61985;51.070;14.064;2023-08-12T16:08:33;4.60;;;3.10;;
73684;SDS011;61985;51.070;14.064;2023-08-12T16:10:59;4.75;;;3.00;;
73684;SDS011;61985;51.070;14.064;2023-08-12T16:13:24;7.40;;;3.15;;
73684;SDS011;61985;51.070;14.064;2023-08-12T16:15:49;6.18;;;3.35;;
73684;SDS011;61985;51.070;14.064;2023-08-12T16:18:15;7.25;;;3.72;;
73684;SDS011;61985;51.070;14.064;2023-08-12T16:20:41;8.25;;;5.50;;
73684;SDS011;61985;51.070;14.064;2023-08-12T16:23:07;10.55;;;5.63;;
73684;SDS011;61985;51.070;14.064;2023-08-12T16:25:32;10.57;;;5.00;;
73684;SDS011;61985;51.070;14.064;2023-08-12T16:27:58;13.68;;;4.93;;
73684;SDS011;61985;51.070;14.064;2023-08-12T16:30:23;7.85;;;3.97;;
73684;SDS011;61985;51.070;14.064;2023-08-12T16:32:52;6.20;;;3.78;;
73684;SDS011;61985;51.070;14.064;2023-08-12T16:35:17;12.25;;;3.90;;
73684;SDS011;61985;51.070;14.064;2023-08-12T16:37:43;6.10;;;3.33;;
73684;SDS011;61985;51.070;14.064;2023-08-12T16:40:08;7.65;;;3.97;;
73684;SDS011;61985;51.070;14.064;2023-08-12T16:42:35;5.15;;;3.38;;
73684;SDS011;61985;51.070;14.064;2023-08-12T16:45:00;8.40;;;3.53;;
73684;SDS011;61985;51.070;14.064;2023-08-12T16:47:25;5.40;;;3.28;;
73684;SDS011;61985;51.070;14.064;2023-08-12T16:49:51;8.75;;;3.50;;
73684;SDS011;61985;51.070;14.064;2023-08-12T16:52:16;5.50;;;3.45;;
73684;SDS011;61985;51.070;14.064;2023-08-12T16:54:43;6.50;;;3.60;;
73684;SDS011;61985;51.070;14.064;2023-08-12T16:57:08;4.93;;;3.30;;
73684;SDS011;61985;51.070;14.064;2023-08-12T16:59:34;5.40;;;3.30;;
73684;SDS011;61985;51.070;14.064;2023-08-12T17:01:59;6.07;;;3.72;;
73684;SDS011;61985;51.070;14.064;2023-08-12T17:04:25;9.90;;;3.83;;
73684;SDS011;61985;51.070;14.064;2023-08-12T17:06:51;5.97;;;3.95;;
73684;SDS011;61985;51.070;14.064;2023-08-12T17:27:21;7.65;;;3.40;;
73684;SDS011;61985;51.070;14.064;2023-08-12T17:29:46;8.18;;;2.88;;
73684;SDS011;61985;51.070;14.064;2023-08-12T17:32:11;7.20;;;2.70;;
73684;SDS011;61985;51.070;14.064;2023-08-12T17:34:40;6.05;;;2.58;;
73684;SDS011;61985;51.070;14.064;2023-08-12T17:37:07;4.30;;;2.22;;
73684;SDS011;61985;51.070;14.064;2023-08-12T17:39:32;6.82;;;2.20;;
73684;SDS011;61985;51.070;14.064;2023-08-12T17:42:00;4.28;;;2.22;;
73684;SDS011;61985;51.070;14.064;2023-08-12T17:44:25;3.88;;;2.25;;
73684;SDS011;61985;51.070;14.064;2023-08-12T17:46:51;5.25;;;2.53;;
73684;SDS011;61985;51.070;14.064;2023-08-12T17:49:16;4.28;;;2.47;;
73684;SDS011;61985;51.070;14.064;2023-08-12T17:51:42;6.50;;;2.60;;